Time;durP1;ratioP1;P1;durP2;ratioP2;P2;SDS_P1;SDS_P2;PMS_P1;PMS_P2;Temp;Humidity;BMP_temperature;BMP_pressure;BME280_temperature;BME280_humidity;BME280_pressure;Samples;Min_cycle;Max_cycle;Signal;HPM_P1;HPM_P2
2021/12/29 03:45:24;;;;;;;112.70;33.10;;;3.80;99.90;;;;;;5783564;24;20026;31
2021/12/29 03:47:50;;;;;;;113.75;32.33;;;3.80;99.90;;;;;;4806572;29;20153;-84
2021/12/29 03:50:16;;;;;;;87.70;31.33;;;3.90;99.90;;;;;;4815187;29;20279;-84
2021/12/29 03:52:42;;;;;;;104.22;32.03;;;3.90;99.90;;;;;;4815459;29;20144;-84
2021/12/29 03:55:08;;;;;;;85.07;28.13;;;3.80;99.90;;;;;;4816663;29;20071;-84
2021/12/29 03:57:34;;;;;;;91.95;30.38;;;3.80;99.90;;;;;;4807130;29;20040;-84
2021/12/29 04:00:00;;;;;;;71.15;26.08;;;3.80;99.90;;;;;;4799334;29;20063;-84
2021/12/29 04:02:25;;;;;;;91.00;29.35;;;3.70;99.90;;;;;;4815320;29;20043;-84
2021/12/29 04:04:52;;;;;;;77.32;27.90;;;3.80;99.90;;;;;;4815591;29;20302;-83
2021/12/29 04:07:18;;;;;;;69.68;25.83;;;3.80;99.90;;;;;;4810676;29;20231;-84
2021/12/29 04:09:44;;;;;;;65.43;26.10;;;3.80;99.90;;;;;;4800319;29;20038;-84
2021/12/29 04:12:10;;;;;;;70.88;27.05;;;3.80;99.90;;;;;;4817144;29;20334;-84
2021/12/29 04:14:35;;;;;;;58.92;23.83;;;3.80;99.90;;;;;;4803633;29;20027;-84
2021/12/29 04:17:09;;;;;;;71.93;25.55;;;3.80;99.90;;;;;;4818813;29;20058;-84
2021/12/29 04:22:20;;;;;;;65.07;24.67;;;3.90;99.90;;;;;;4812256;29;20054;-84
2021/12/29 04:24:46;;;;;;;70.32;26.05;;;4.00;99.90;;;;;;4803688;29;20046;-83
2021/12/29 04:27:12;;;;;;;81.78;26.85;;;4.00;99.90;;;;;;4788355;29;20103;-82
2021/12/29 04:29:38;;;;;;;67.15;24.13;;;4.00;99.90;;;;;;4803295;29;20110;-82
2021/12/29 04:32:04;;;;;;;64.45;24.98;;;4.00;99.90;;;;;;4813796;29;20059;-83
2021/12/29 04:34:30;;;;;;;60.92;24.70;;;3.90;99.90;;;;;;4804666;29;20038;-84
2021/12/29 04:36:55;;;;;;;66.35;23.98;;;4.00;99.90;;;;;;4815338;29;20035;-84
2021/12/29 04:39:21;;;;;;;62.75;24.58;;;4.00;99.90;;;;;;4818429;29;20038;-83
2021/12/29 04:41:47;;;;;;;56.65;25.10;;;4.00;99.90;;;;;;4818483;29;20039;-83
2021/12/29 04:44:13;;;;;;;57.75;23.35;;;4.00;99.90;;;;;;4798322;29;20045;-83
2021/12/29 04:46:44;;;;;;;54.42;22.27;;;4.00;99.90;;;;;;4803622;29;20051;-83
2021/12/29 04:49:12;;;;;;;45.85;19.60;;;4.00;99.90;;;;;;4774019;30;20107;-83
2021/12/29 04:51:47;;;;;;;46.50;21.13;;;4.00;99.90;;;;;;4795364;29;20060;-83
2021/12/29 04:54:13;;;;;;;54.97;22.35;;;4.00;99.90;;;;;;4800323;29;20319;-84
2021/12/29 04:56:39;;;;;;;52.67;22.35;;;4.00;99.90;;;;;;4806906;30;20034;-83
2021/12/29 04:59:05;;;;;;;48.67;20.60;;;4.00;99.90;;;;;;4778909;30;20047;-83
2021/12/29 05:01:32;;;;;;;58.75;21.00;;;4.00;99.90;;;;;;4810515;29;20043;-83
2021/12/29 05:03:58;;;;;;;58.25;22.52;;;4.00;99.90;;;;;;4794789;30;20049;-84
2021/12/29 05:09:09;;;;;;;44.28;19.00;;;4.10;99.90;;;;;;4815689;29;20035;-83
2021/12/29 05:11:35;;;;;;;43.10;19.75;;;4.00;99.90;;;;;;4789354;29;20043;-83
2021/12/29 05:14:02;;;;;;;54.10;20.15;;;4.00;99.90;;;;;;4803290;29;20070;-82
2021/12/29 05:16:28;;;;;;;;;;;3.90;99.90;;;;;;4788432;29;20042;-82
2021/12/29 05:18:56;;;;;;;49.27;19.93;;;3.90;99.90;;;;;;4768603;29;19913;-83
2021/12/29 05:21:25;;;;;;;55.55;20.98;;;3.90;99.90;;;;;;4794149;29;20118;-83
2021/12/29 05:23:52;;;;;;;51.10;20.58;;;3.90;99.90;;;;;;4791440;29;20349;-83
2021/12/29 05:26:17;;;;;;;49.83;20.65;;;3.90;99.90;;;;;;4798951;29;20064;-83
2021/12/29 05:28:44;;;;;;;51.80;20.98;;;3.90;99.90;;;;;;4775056;29;20388;-83
2021/12/29 05:31:10;;;;;;;51.10;20.92;;;3.80;99.90;;;;;;4780916;29;20031;-83
2021/12/29 05:33:36;;;;;;;50.80;21.03;;;3.90;99.90;;;;;;4764190;29;20035;-83
2021/12/29 05:36:03;;;;;;;55.28;22.08;;;4.00;99.90;;;;;;4791381;29;20236;-83
2021/12/29 05:38:29;;;;;;;48.17;19.20;;;4.00;99.90;;;;;;4792387;29;20039;-84
2021/12/29 05:40:55;;;;;;;52.15;21.38;;;4.00;99.90;;;;;;4771454;29;20342;-84
2021/12/29 05:43:20;;;;;;;44.13;19.83;;;4.00;99.90;;;;;;4769950;30;20075;-84
2021/12/29 05:45:49;;;;;;;43.30;18.95;;;4.00;99.90;;;;;;4776447;29;20087;-83
2021/12/29 05:48:15;;;;;;;47.72;20.75;;;4.00;99.90;;;;;;4767491;29;20051;-83
2021/12/29 05:50:41;;;;;;;47.72;18.73;;;4.10;99.90;;;;;;4794582;29;20035;-83
2021/12/29 05:53:07;;;;;;;44.95;19.10;;;4.20;99.90;;;;;;4776377;29;20038;-84
2021/12/29 05:55:33;;;;;;;47.25;20.67;;;4.20;99.90;;;;;;4765803;29;20083;-83
2021/12/29 05:57:59;;;;;;;48.83;20.08;;;4.20;99.90;;;;;;4772284;29;20397;-83
2021/12/29 06:00:26;;;;;;;54.08;22.70;;;4.20;99.90;;;;;;4789639;29;20398;-84
2021/12/29 06:02:53;;;;;;;46.60;20.35;;;4.20;99.90;;;;;;4779527;29;20223;-83
2021/12/29 06:05:23;;;;;;;48.72;21.80;;;4.20;99.90;;;;;;4772883;30;20070;-84
2021/12/29 06:07:49;;;;;;;53.35;21.88;;;4.20;99.90;;;;;;4783446;30;20039;-82
2021/12/29 06:10:15;;;;;;;51.35;20.88;;;4.20;99.90;;;;;;4764214;29;20093;-84
2021/12/29 06:12:41;;;;;;;51.15;22.45;;;4.20;99.90;;;;;;4802565;29;20285;-83
2021/12/29 06:15:09;;;;;;;50.58;22.27;;;4.20;99.90;;;;;;4788913;29;20045;-83
2021/12/29 06:17:35;;;;;;;51.17;23.00;;;4.20;99.90;;;;;;4786936;30;20043;-83
2021/12/29 06:20:02;;;;;;;49.53;22.20;;;4.20;99.90;;;;;;4787617;29;20041;-82
2021/12/29 06:22:28;;;;;;;68.10;29.83;;;4.20;99.90;;;;;;4789219;29;20265;-83
2021/12/29 06:24:54;;;;;;;70.60;35.60;;;4.20;99.90;;;;;;4784253;29;20043;-82
2021/12/29 06:27:21;;;;;;;64.32;29.15;;;4.10;99.90;;;;;;4774471;29;20044;-82
2021/12/29 06:29:48;;;;;;;65.25;26.50;;;4.10;99.90;;;;;;4779956;30;20032;-82
2021/12/29 06:32:14;;;;;;;58.90;24.63;;;4.00;99.90;;;;;;4766101;29;20351;-82
2021/12/29 06:34:40;;;;;;;57.72;26.02;;;4.00;99.90;;;;;;4805138;29;20276;-82
2021/12/29 06:37:08;;;;;;;65.32;30.42;;;4.00;99.90;;;;;;4790536;30;20036;-81
2021/12/29 06:39:39;;;;;;;58.70;24.00;;;4.10;99.90;;;;;;4805781;29;20043;-81
2021/12/29 06:42:05;;;;;;;57.03;25.75;;;4.10;99.90;;;;;;4792124;29;20035;-82
2021/12/29 06:44:31;;;;;;;62.55;26.80;;;4.00;99.90;;;;;;4790309;29;20195;-82
2021/12/29 06:46:57;;;;;;;65.07;26.23;;;4.00;99.90;;;;;;4806209;29;20116;-82
2021/12/29 06:49:23;;;;;;;67.07;29.50;;;4.00;99.90;;;;;;4754941;30;20223;-82
2021/12/29 06:51:50;;;;;;;66.57;27.58;;;4.00;99.90;;;;;;4800828;29;20035;-83
2021/12/29 06:54:16;;;;;;;58.83;26.17;;;4.10;99.90;;;;;;4795981;29;20059;-82
2021/12/29 06:56:42;;;;;;;67.25;27.77;;;4.10;99.90;;;;;;4811351;29;20343;-82
2021/12/29 06:59:07;;;;;;;63.13;25.08;;;4.00;99.90;;;;;;4772420;29;20039;-83
2021/12/29 07:01:34;;;;;;;70.15;29.13;;;4.10;99.90;;;;;;4797552;29;20238;-82
2021/12/29 07:04:00;;;;;;;72.07;27.95;;;4.10;99.90;;;;;;4787793;29;20095;-82
2021/12/29 07:06:26;;;;;;;70.07;28.27;;;4.00;99.90;;;;;;4785503;29;20079;-83
2021/12/29 07:08:51;;;;;;;66.75;27.98;;;4.00;99.90;;;;;;4768522;29;20106;-84
2021/12/29 07:11:17;;;;;;;76.07;29.45;;;4.00;99.90;;;;;;4781644;29;20084;-83
2021/12/29 07:13:44;;;;;;;64.80;27.73;;;4.00;99.90;;;;;;4789300;29;20038;-83
2021/12/29 07:16:11;;;;;;;69.15;28.35;;;4.10;99.90;;;;;;4783703;29;20306;-83
2021/12/29 07:18:37;;;;;;;65.97;27.08;;;4.10;99.90;;;;;;4785622;29;20039;-83
2021/12/29 07:21:04;;;;;;;62.72;26.88;;;4.10;99.90;;;;;;4775227;29;20055;-83
2021/12/29 07:23:30;;;;;;;68.63;29.33;;;4.20;99.90;;;;;;4770444;29;20039;-82
2021/12/29 07:25:56;;;;;;;70.67;28.13;;;4.20;99.90;;;;;;4774768;29;20047;-82
2021/12/29 07:28:22;;;;;;;69.95;26.90;;;4.20;99.90;;;;;;4771652;29;20366;-83
2021/12/29 07:30:48;;;;;;;67.25;27.88;;;4.20;99.90;;;;;;4776125;29;20047;-83
2021/12/29 07:33:14;;;;;;;68.32;28.65;;;4.20;99.90;;;;;;4775675;29;20035;-83
2021/12/29 07:35:40;;;;;;;78.43;29.98;;;4.30;99.90;;;;;;4778864;29;20050;-83
2021/12/29 07:38:05;;;;;;;71.07;28.23;;;4.30;99.90;;;;;;4774950;29;20117;-82
2021/12/29 07:40:34;;;;;;;68.18;28.67;;;4.40;99.90;;;;;;4782463;30;20039;-83
2021/12/29 07:43:02;;;;;;;82.70;31.85;;;4.40;99.90;;;;;;4802298;29;20042;-83
2021/12/29 07:45:28;;;;;;;69.28;29.30;;;4.50;99.90;;;;;;4794481;29;20032;-82
2021/12/29 07:47:55;;;;;;;67.13;28.98;;;4.50;99.90;;;;;;4777375;30;20051;-82
2021/12/29 07:50:21;;;;;;;65.07;28.27;;;4.50;99.90;;;;;;4788390;30;20338;-83
2021/12/29 07:52:47;;;;;;;74.53;31.75;;;4.60;99.90;;;;;;4764543;30;20216;-83
2021/12/29 07:55:18;;;;;;;61.90;29.27;;;4.70;99.90;;;;;;4786325;29;20043;-82
2021/12/29 07:57:44;;;;;;;67.40;27.92;;;4.80;99.90;;;;;;4796403;29;20051;-83
2021/12/29 08:00:11;;;;;;;66.45;27.67;;;4.80;99.90;;;;;;4807022;29;20183;-83
2021/12/29 08:02:39;;;;;;;69.75;30.23;;;4.80;99.90;;;;;;4811696;29;20043;-83
2021/12/29 08:05:07;;;;;;;69.97;28.40;;;4.90;99.90;;;;;;4782065;30;20046;-83
2021/12/29 08:07:33;;;;;;;78.13;28.90;;;4.90;99.90;;;;;;4801976;29;20069;-83
2021/12/29 08:09:59;;;;;;;63.95;27.65;;;4.80;99.90;;;;;;4793263;29;20059;-83
2021/12/29 08:12:26;;;;;;;58.83;27.77;;;4.80;99.90;;;;;;4791076;30;20112;-83
2021/12/29 08:14:53;;;;;;;63.80;27.00;;;4.80;99.90;;;;;;4823701;29;20047;-82
2021/12/29 08:17:18;;;;;;;;;;;4.80;99.90;;;;;;4785583;30;20278;-83
2021/12/29 08:19:45;;;;;;;64.50;27.87;;;4.70;99.90;;;;;;4815476;29;19913;-83
2021/12/29 08:22:11;;;;;;;57.10;27.50;;;4.80;99.90;;;;;;4798142;29;20060;-83
2021/12/29 08:24:37;;;;;;;56.47;27.13;;;4.90;99.90;;;;;;4778915;29;20043;-83
2021/12/29 08:27:04;;;;;;;61.47;26.37;;;4.90;99.90;;;;;;4808076;29;20395;-83
2021/12/29 08:29:30;;;;;;;73.18;31.13;;;5.00;99.90;;;;;;4784697;29;20080;-83
2021/12/29 08:31:57;;;;;;;76.45;36.03;;;5.10;99.90;;;;;;4809875;29;20047;-83
2021/12/29 08:34:23;;;;;;;;;;;5.10;99.90;;;;;;4774661;29;20115;-83
2021/12/29 08:36:49;;;;;;;59.67;28.95;;;5.20;99.90;;;;;;4799162;29;20231;-83
2021/12/29 08:39:15;;;;;;;63.70;25.75;;;5.10;99.90;;;;;;4803673;29;20046;-82
2021/12/29 08:41:41;;;;;;;64.10;27.23;;;5.10;99.90;;;;;;4806445;29;20053;-83
2021/12/29 08:44:07;;;;;;;60.20;25.95;;;5.00;99.90;;;;;;4800453;29;20275;-82
2021/12/29 08:46:33;;;;;;;56.95;25.55;;;5.00;99.90;;;;;;4769707;29;20126;-83
2021/12/29 08:48:58;;;;;;;58.67;28.73;;;5.10;99.90;;;;;;4784435;29;20035;-83
2021/12/29 08:51:24;;;;;;;49.63;24.92;;;5.20;99.90;;;;;;4759739;29;20034;-82
2021/12/29 08:53:50;;;;;;;58.08;26.75;;;5.40;99.90;;;;;;4810689;29;20067;-82
2021/12/29 08:56:16;;;;;;;57.55;26.15;;;5.50;99.90;;;;;;4811115;29;20285;-83
2021/12/29 08:58:44;;;;;;;63.05;30.00;;;5.50;99.90;;;;;;4777665;29;20049;-83
2021/12/29 09:01:11;;;;;;;54.30;24.75;;;5.50;99.90;;;;;;4787889;29;20062;-83
2021/12/29 09:03:37;;;;;;;56.87;25.30;;;5.50;99.90;;;;;;4772834;29;20283;-82
2021/12/29 09:06:03;;;;;;;61.03;26.63;;;5.50;99.90;;;;;;4785457;29;20043;-82
2021/12/29 09:08:29;;;;;;;47.55;23.17;;;5.50;99.90;;;;;;4797825;29;20094;-82
2021/12/29 09:10:55;;;;;;;57.05;26.67;;;5.60;99.90;;;;;;4770626;29;20031;-82
2021/12/29 09:13:21;;;;;;;52.95;25.35;;;5.70;99.90;;;;;;4820015;29;20031;-82
2021/12/29 09:15:49;;;;;;;51.47;23.98;;;5.60;99.90;;;;;;4785857;30;20058;-84
2021/12/29 09:18:16;;;;;;;49.45;24.58;;;5.60;99.90;;;;;;4805381;29;20062;-83
2021/12/29 09:20:45;;;;;;;46.28;24.90;;;5.70;99.90;;;;;;4789554;29;20039;-82
2021/12/29 09:23:13;;;;;;;52.25;25.85;;;5.90;99.90;;;;;;4811235;29;20027;-82
2021/12/29 09:25:41;;;;;;;54.42;25.35;;;6.20;99.90;;;;;;4790549;29;20043;-82
2021/12/29 09:28:09;;;;;;;53.88;24.92;;;6.20;99.90;;;;;;4799687;29;20331;-82
2021/12/29 09:30:37;;;;;;;52.15;26.95;;;6.10;99.90;;;;;;4814302;29;20032;-82
2021/12/29 09:33:04;;;;;;;49.50;24.52;;;6.10;99.90;;;;;;4797606;29;20058;-82
2021/12/29 09:35:30;;;;;;;48.07;24.90;;;6.20;99.90;;;;;;4798953;29;20043;-82
2021/12/29 09:37:56;;;;;;;52.60;25.27;;;6.20;99.90;;;;;;4817533;29;20711;-81
2021/12/29 09:40:23;;;;;;;55.20;26.88;;;6.20;99.90;;;;;;4804438;29;20118;-81
2021/12/29 09:42:52;;;;;;;51.35;26.50;;;6.10;99.90;;;;;;4820507;29;20031;-82
2021/12/29 09:45:19;;;;;;;49.25;25.05;;;6.10;99.90;;;;;;4785869;29;20200;-82
2021/12/29 09:47:45;;;;;;;48.78;25.27;;;6.10;99.90;;;;;;4818568;29;20085;-82
2021/12/29 09:50:14;;;;;;;49.92;25.02;;;6.30;99.90;;;;;;4808596;29;20042;-82
2021/12/29 09:52:40;;;;;;;44.25;24.42;;;6.60;99.90;;;;;;4803735;29;20028;-82
2021/12/29 09:55:11;;;;;;;46.08;25.55;;;6.80;99.90;;;;;;4809677;29;20050;-83
2021/12/29 09:57:44;;;;;;;44.90;25.25;;;6.90;99.90;;;;;;4791878;29;20392;-83
2021/12/29 10:00:29;;;;;;;46.55;24.15;;;6.90;99.90;;;;;;4803494;29;20039;-83
2021/12/29 10:02:58;;;;;;;47.97;22.73;;;7.00;99.90;;;;;;4798827;29;20039;-82
2021/12/29 10:05:27;;;;;;;46.33;23.15;;;7.00;99.90;;;;;;4804113;29;20030;-83
2021/12/29 10:08:12;;;;;;;54.67;24.65;;;7.00;99.90;;;;;;4771313;29;20044;-82
2021/12/29 10:10:41;;;;;;;53.17;25.73;;;6.90;99.90;;;;;;4797569;29;20039;-83
2021/12/29 10:13:09;;;;;;;49.53;24.10;;;7.00;99.90;;;;;;4804135;29;20050;-83
2021/12/29 10:15:39;;;;;;;49.45;25.52;;;7.00;99.90;;;;;;4775052;29;20110;-83
2021/12/29 10:18:07;;;;;;;51.00;25.30;;;7.00;99.90;;;;;;4798719;29;20039;-82
2021/12/29 10:20:33;;;;;;;51.65;26.10;;;7.00;99.90;;;;;;4800841;29;20049;-82
2021/12/29 10:23:01;;;;;;;53.28;27.13;;;7.00;99.90;;;;;;4819237;29;20286;-83
2021/12/29 10:25:31;;;;;;;;;;;7.00;99.90;;;;;;4807927;29;20372;-83
2021/12/29 10:27:57;;;;;;;50.92;25.98;;;7.10;99.90;;;;;;4807741;29;19916;-82
2021/12/29 10:30:24;;;;;;;53.03;27.88;;;7.00;99.90;;;;;;4778107;29;20038;-82
2021/12/29 10:32:52;;;;;;;48.75;26.05;;;7.00;99.90;;;;;;4796802;29;20027;-82
2021/12/29 10:35:27;;;;;;;50.03;26.00;;;7.10;99.90;;;;;;4792359;29;20046;-83
2021/12/29 10:37:55;;;;;;;53.78;26.48;;;7.20;99.90;;;;;;4802232;29;20051;-82
2021/12/29 10:40:29;;;;;;;47.08;25.65;;;7.20;99.90;;;;;;4789810;29;20112;-82
2021/12/29 10:42:58;;;;;;;52.08;27.40;;;7.20;99.90;;;;;;4805340;29;20044;-81
2021/12/29 10:45:29;;;;;;;44.97;24.75;;;7.50;99.90;;;;;;4811007;29;20042;-81
2021/12/29 10:47:55;;;;;;;46.13;24.95;;;7.60;99.90;;;;;;4810922;29;20047;-82
2021/12/29 10:50:21;;;;;;;45.22;25.13;;;7.90;99.90;;;;;;4780599;29;20038;-82
2021/12/29 10:52:50;;;;;;;47.72;25.80;;;8.20;99.90;;;;;;4773585;29;20037;-82
2021/12/29 10:55:31;;;;;;;53.67;25.35;;;8.30;99.90;;;;;;4803062;29;20042;-81
2021/12/29 10:58:05;;;;;;;47.80;25.42;;;8.30;99.90;;;;;;4797873;29;20118;-82
2021/12/29 11:00:31;;;;;;;48.38;26.60;;;8.30;99.90;;;;;;4800192;29;20035;-82
2021/12/29 11:03:14;;;;;;;54.03;27.60;;;8.40;99.90;;;;;;4790654;29;20361;-82
2021/12/29 11:05:47;;;;;;;56.05;28.67;;;8.30;99.90;;;;;;4816850;29;20057;-82
2021/12/29 11:08:15;;;;;;;52.67;28.20;;;8.30;99.90;;;;;;4807870;29;20093;-81
2021/12/29 11:10:41;;;;;;;53.88;29.33;;;8.20;99.90;;;;;;4809636;29;20035;-81
2021/12/29 11:13:09;;;;;;;48.15;27.05;;;8.20;99.90;;;;;;4791436;29;20409;-81
2021/12/29 11:15:41;;;;;;;54.10;27.52;;;8.20;99.90;;;;;;4786089;30;20061;-82
2021/12/29 11:18:11;;;;;;;48.42;26.02;;;8.10;99.90;;;;;;4798221;29;20100;-83
2021/12/29 11:20:39;;;;;;;55.78;26.80;;;8.10;99.90;;;;;;4813702;29;20054;-83
2021/12/29 11:23:16;;;;;;;48.22;26.52;;;8.10;99.90;;;;;;4796386;29;20035;-82
2021/12/29 11:25:44;;;;;;;57.20;28.17;;;7.90;99.90;;;;;;4795447;29;20088;-82
2021/12/29 11:28:25;;;;;;;53.13;26.73;;;7.70;99.90;;;;;;4795194;29;20055;-83
2021/12/29 11:30:52;;;;;;;51.08;25.52;;;7.80;99.90;;;;;;4817280;29;20362;-82
2021/12/29 11:33:19;;;;;;;45.50;25.08;;;7.90;99.90;;;;;;4778615;29;20096;-82
2021/12/29 11:35:53;;;;;;;51.13;26.58;;;7.80;99.90;;;;;;4766437;29;20051;-81
2021/12/29 11:38:22;;;;;;;52.80;27.95;;;7.80;99.90;;;;;;4802100;29;20042;-83
2021/12/29 11:40:51;;;;;;;52.95;27.17;;;7.80;99.90;;;;;;4801576;29;20078;-83
2021/12/29 11:43:19;;;;;;;49.75;25.63;;;7.80;99.90;;;;;;4803887;29;20134;-83
2021/12/29 11:45:48;;;;;;;45.53;25.00;;;7.80;99.90;;;;;;4791255;29;20113;-83
2021/12/29 11:48:17;;;;;;;51.92;26.00;;;7.90;99.90;;;;;;4801744;29;20050;-83
2021/12/29 11:50:56;;;;;;;51.63;25.73;;;8.00;99.90;;;;;;4793278;29;20222;-83
2021/12/29 11:53:43;;;;;;;44.78;24.00;;;7.90;99.90;;;;;;4804880;29;20092;-83
2021/12/29 11:56:14;;;;;;;52.60;25.80;;;8.00;99.90;;;;;;4812572;29;20035;-84
2021/12/29 11:58:42;;;;;;;47.40;25.25;;;8.10;99.90;;;;;;4799734;29;20049;-83
2021/12/29 12:01:10;;;;;;;43.85;24.90;;;8.10;99.90;;;;;;4791398;29;20035;-83
2021/12/29 12:03:52;;;;;;;49.75;26.67;;;8.20;99.90;;;;;;4804722;29;20105;-85
2021/12/29 12:06:29;;;;;;;52.72;28.65;;;8.10;99.90;;;;;;4799637;29;20268;-84
2021/12/29 12:09:22;;;;;;;51.80;28.42;;;8.10;99.90;;;;;;4823022;29;20038;-84
2021/12/29 12:11:48;;;;;;;49.22;26.20;;;8.20;99.90;;;;;;4809607;29;20039;-84
2021/12/29 12:14:30;;;;;;;49.20;26.23;;;8.20;99.90;;;;;;4812124;29;20071;-84
2021/12/29 12:17:04;;;;;;;44.00;25.27;;;8.30;99.90;;;;;;4807894;29;20513;-84
2021/12/29 12:19:32;;;;;;;48.65;25.58;;;8.20;99.90;;;;;;4781137;29;20098;-85
2021/12/29 12:22:18;;;;;;;48.42;25.98;;;8.20;99.90;;;;;;4785342;30;20040;-85
2021/12/29 12:24:50;;;;;;;46.85;25.38;;;8.20;99.90;;;;;;4800885;29;20150;-85
2021/12/29 12:27:31;;;;;;;44.05;23.85;;;8.20;99.90;;;;;;4802647;29;20085;-85
2021/12/29 12:30:38;;;;;;;42.30;23.60;;;8.30;99.90;;;;;;4801558;29;20032;-86
2021/12/29 12:33:26;;;;;;;45.65;23.85;;;8.30;99.90;;;;;;4785433;29;20043;-85
2021/12/29 12:35:53;;;;;;;47.40;25.55;;;8.30;99.90;;;;;;4804969;29;20052;-85
2021/12/29 12:38:27;;;;;;;43.65;24.48;;;8.30;99.90;;;;;;4806314;29;20027;-85
2021/12/29 12:41:12;;;;;;;43.92;23.60;;;8.40;99.90;;;;;;4792529;29;20091;-85
2021/12/29 12:43:52;;;;;;;48.45;26.27;;;8.30;99.90;;;;;;4796673;29;20460;-84
2021/12/29 12:46:44;;;;;;;50.13;25.15;;;8.30;99.90;;;;;;4797084;29;20073;-84
2021/12/29 12:49:26;;;;;;;52.10;25.80;;;8.20;99.90;;;;;;4748211;30;20387;-84
2021/12/29 12:51:58;;;;;;;45.92;24.98;;;8.20;99.90;;;;;;4748940;30;20059;-84
2021/12/29 12:54:27;;;;;;;51.53;24.60;;;8.20;99.90;;;;;;4746154;30;20049;-84
2021/12/29 12:56:55;;;;;;;49.60;23.60;;;8.30;99.90;;;;;;4744287;30;20336;-84
2021/12/29 12:59:20;;;;;;;48.38;24.67;;;8.30;99.90;;;;;;4742673;30;20036;-84
2021/12/29 13:01:50;;;;;;;38.88;22.38;;;8.30;99.90;;;;;;4739679;30;20051;-84
2021/12/29 13:04:17;;;;;;;40.45;23.00;;;8.40;99.90;;;;;;4750329;30;20090;-84
2021/12/29 13:06:44;;;;;;;;;;;8.60;99.90;;;;;;4733244;30;20036;-84
2021/12/29 13:09:10;;;;;;;50.17;24.80;;;8.60;99.90;;;;;;4767304;30;20213;-85
2021/12/29 13:11:39;;;;;;;49.57;24.67;;;8.60;99.90;;;;;;4752703;30;20108;-85
2021/12/29 13:14:08;;;;;;;48.22;26.13;;;8.70;99.90;;;;;;4750615;30;20073;-83
2021/12/29 13:16:34;;;;;;;46.63;26.67;;;8.70;99.90;;;;;;4739203;30;20047;-84
2021/12/29 13:19:01;;;;;;;45.43;25.33;;;8.70;99.90;;;;;;4755237;30;20088;-85
2021/12/29 13:21:30;;;;;;;53.67;27.80;;;8.70;99.90;;;;;;4755061;30;20046;-84
2021/12/29 13:23:59;;;;;;;54.40;26.65;;;8.70;99.90;;;;;;4762778;30;20314;-84
2021/12/29 13:26:32;;;;;;;44.83;24.23;;;8.60;99.90;;;;;;4800106;29;20092;-84
2021/12/29 13:28:57;;;;;;;48.83;25.95;;;8.60;99.90;;;;;;4782498;29;20032;-83
2021/12/29 13:31:24;;;;;;;45.90;24.77;;;8.60;99.90;;;;;;4755976;29;20058;-84
2021/12/29 13:33:55;;;;;;;49.55;26.48;;;8.70;99.90;;;;;;4776970;29;20232;-84
2021/12/29 13:36:23;;;;;;;46.65;24.33;;;8.70;99.90;;;;;;4802614;29;20042;-85
2021/12/29 13:38:53;;;;;;;43.85;22.27;;;8.70;99.90;;;;;;4790511;29;20054;-84
2021/12/29 13:41:34;;;;;;;43.92;24.55;;;8.80;99.90;;;;;;4791213;29;20219;-84
2021/12/29 13:44:05;;;;;;;49.65;26.08;;;8.90;99.90;;;;;;4805594;29;20285;-84
2021/12/29 13:46:40;;;;;;;59.35;28.52;;;8.80;99.90;;;;;;4786494;29;20047;-84
2021/12/29 13:49:10;;;;;;;49.40;24.33;;;8.70;99.90;;;;;;4806326;29;20210;-84
2021/12/29 13:51:39;;;;;;;56.65;27.15;;;8.70;99.90;;;;;;4806681;29;20046;-84
2021/12/29 13:54:13;;;;;;;55.08;27.13;;;8.70;99.90;;;;;;4813491;29;20039;-84
2021/12/29 13:56:49;;;;;;;57.50;27.90;;;8.60;99.90;;;;;;4791366;29;20046;-84
2021/12/29 13:59:21;;;;;;;49.15;25.20;;;8.50;99.90;;;;;;4789211;29;20055;-84
2021/12/29 14:01:48;;;;;;;53.35;26.65;;;8.50;99.90;;;;;;4804366;29;20038;-84
2021/12/29 14:04:23;;;;;;;60.80;27.25;;;8.50;99.90;;;;;;4788625;29;20108;-84
2021/12/29 14:06:55;;;;;;;54.05;25.05;;;8.50;99.90;;;;;;4791786;29;20085;-84
2021/12/29 14:09:24;;;;;;;44.55;21.63;;;8.50;99.90;;;;;;4804847;29;20023;-84
2021/12/29 14:11:53;;;;;;;43.22;20.83;;;8.50;99.90;;;;;;4800487;29;20066;-83
2021/12/29 14:14:20;;;;;;;40.30;20.30;;;8.50;99.90;;;;;;4785857;29;20231;-84
2021/12/29 14:16:53;;;;;;;44.25;20.88;;;8.50;99.90;;;;;;4801895;29;20054;-84
2021/12/29 14:19:22;;;;;;;33.95;17.63;;;8.60;99.90;;;;;;4816222;29;20031;-84
2021/12/29 14:21:48;;;;;;;40.42;18.98;;;8.60;99.90;;;;;;4799064;29;20031;-85
2021/12/29 14:24:16;;;;;;;39.78;17.33;;;8.60;99.90;;;;;;4798388;29;20212;-84
2021/12/29 14:26:47;;;;;;;34.75;15.55;;;8.70;99.90;;;;;;4803153;29;20109;-84
2021/12/29 14:29:16;;;;;;;38.03;20.17;;;8.80;99.90;;;;;;4800787;29;20102;-84
2021/12/29 14:31:45;;;;;;;40.53;20.45;;;8.80;99.90;;;;;;4821209;29;20279;-84
2021/12/29 14:34:14;;;;;;;35.67;18.92;;;8.70;99.90;;;;;;4817849;29;20137;-84
2021/12/29 14:36:44;;;;;;;35.22;17.17;;;8.70;99.90;;;;;;4801477;29;20227;-84
2021/12/29 14:39:40;;;;;;;33.33;16.85;;;8.80;99.90;;;;;;4805622;29;20332;-84
2021/12/29 14:42:29;;;;;;;26.73;14.77;;;8.80;99.90;;;;;;4799020;29;20754;-84
2021/12/29 14:45:02;;;;;;;23.02;12.65;;;8.80;99.90;;;;;;4793159;29;20106;-83
2021/12/29 14:47:29;;;;;;;23.00;12.15;;;8.80;99.90;;;;;;4771109;29;20361;-84
2021/12/29 14:50:06;;;;;;;17.23;9.45;;;8.90;99.90;;;;;;4793073;29;20038;-84
2021/12/29 14:52:34;;;;;;;20.80;10.00;;;8.90;99.90;;;;;;4794994;29;20335;-84
2021/12/29 14:55:00;;;;;;;13.88;7.55;;;8.90;99.90;;;;;;4787274;29;20033;-84
2021/12/29 14:57:31;;;;;;;15.88;8.60;;;8.80;99.90;;;;;;4791335;29;20376;-84
2021/12/29 15:00:22;;;;;;;15.90;7.75;;;8.80;99.90;;;;;;4797545;29;20593;-84
2021/12/29 15:02:50;;;;;;;18.25;9.85;;;8.80;99.90;;;;;;4802925;29;20039;-83
2021/12/29 15:05:22;;;;;;;17.02;8.75;;;8.80;99.90;;;;;;4756094;29;20342;-84
2021/12/29 15:07:52;;;;;;;21.50;8.90;;;8.80;99.90;;;;;;4791436;29;20031;-84
2021/12/29 15:10:40;;;;;;;20.50;10.15;;;8.70;99.90;;;;;;4802893;29;20051;-84
2021/12/29 15:13:12;;;;;;;25.42;12.15;;;8.70;99.90;;;;;;4786472;29;20038;-84
2021/12/29 15:15:39;;;;;;;30.40;15.27;;;8.80;99.90;;;;;;4801475;29;20038;-84
2021/12/29 15:18:14;;;;;;;;;;;8.70;99.90;;;;;;4802696;29;20043;-84
2021/12/29 15:20:47;;;;;;;29.30;14.63;;;8.70;99.90;;;;;;4810410;29;19925;-84
2021/12/29 15:23:14;;;;;;;23.80;12.98;;;8.80;99.90;;;;;;4803928;29;20047;-84
2021/12/29 15:25:41;;;;;;;19.52;10.98;;;8.80;99.90;;;;;;4809114;29;20342;-84
2021/12/29 15:28:08;;;;;;;21.20;12.90;;;8.80;99.90;;;;;;4804517;29;20031;-84
2021/12/29 15:30:37;;;;;;;21.95;12.43;;;8.80;99.90;;;;;;4801213;29;20273;-84
2021/12/29 15:33:04;;;;;;;19.98;10.40;;;8.80;99.90;;;;;;4798571;29;20111;-83
2021/12/29 15:35:30;;;;;;;15.25;9.13;;;8.80;99.90;;;;;;4783507;29;20062;-83
2021/12/29 15:37:56;;;;;;;15.70;9.03;;;8.80;99.90;;;;;;4772528;29;20051;-83
2021/12/29 15:40:24;;;;;;;12.68;8.10;;;8.70;99.90;;;;;;4808521;29;20118;-82
2021/12/29 15:42:50;;;;;;;13.35;7.72;;;8.70;99.90;;;;;;4800434;29;20038;-83
2021/12/29 15:45:17;;;;;;;11.60;7.88;;;8.70;99.90;;;;;;4786755;29;20039;-83
2021/12/29 15:47:44;;;;;;;12.95;8.55;;;8.80;99.90;;;;;;4785904;29;20062;-83
2021/12/29 15:50:15;;;;;;;12.88;8.70;;;8.80;99.90;;;;;;4796507;29;20318;-83
2021/12/29 15:52:41;;;;;;;20.05;10.05;;;8.80;99.90;;;;;;4788884;29;20385;-84
2021/12/29 15:55:09;;;;;;;18.38;11.70;;;8.90;99.90;;;;;;4790966;29;20031;-84
2021/12/29 15:57:35;;;;;;;18.70;11.35;;;8.90;99.90;;;;;;4810744;29;20094;-84
2021/12/29 16:00:09;;;;;;;19.23;11.82;;;8.90;99.90;;;;;;4793476;29;20275;-84
2021/12/29 16:02:35;;;;;;;16.80;10.55;;;8.90;99.90;;;;;;4807837;29;20043;-84
2021/12/29 16:05:01;;;;;;;15.30;10.93;;;9.00;99.90;;;;;;4792585;29;20039;-84
2021/12/29 16:07:28;;;;;;;22.88;12.73;;;9.00;99.90;;;;;;4803902;29;20059;-84
2021/12/29 16:09:54;;;;;;;34.03;14.23;;;9.00;99.90;;;;;;4805633;29;20378;-85
2021/12/29 16:12:21;;;;;;;18.63;11.48;;;8.90;99.90;;;;;;4770832;29;20043;-83
2021/12/29 16:14:48;;;;;;;16.98;10.65;;;8.90;99.90;;;;;;4750110;29;20035;-83
2021/12/29 16:17:14;;;;;;;20.25;12.10;;;8.90;99.90;;;;;;4772195;29;20035;-83
2021/12/29 16:19:40;;;;;;;17.77;11.88;;;8.90;99.90;;;;;;4787342;29;20126;-84
2021/12/29 16:22:06;;;;;;;26.67;14.98;;;8.90;99.90;;;;;;4801518;29;20035;-82
2021/12/29 16:24:33;;;;;;;36.55;18.13;;;8.90;99.90;;;;;;4789881;29;20043;-82
2021/12/29 16:26:58;;;;;;;36.17;18.55;;;8.80;99.90;;;;;;4802860;29;20054;-83
2021/12/29 16:29:25;;;;;;;52.38;26.25;;;8.70;99.90;;;;;;4784792;30;20180;-83
2021/12/29 16:31:51;;;;;;;50.22;25.50;;;8.60;99.90;;;;;;4798927;29;20050;-83
2021/12/29 16:34:17;;;;;;;50.92;25.02;;;8.50;99.90;;;;;;4776734;29;20323;-82
2021/12/29 16:36:46;;;;;;;52.95;25.55;;;8.50;99.90;;;;;;4798401;29;20028;-84